Time;durP1;ratioP1;P1;durP2;ratioP2;P2;SDS_P1;SDS_P2;PMS_P1;PMS_P2;Temp;Humidity;BMP_temperature;BMP_pressure;BME280_temperature;BME280_humidity;BME280_pressure;Samples;Min_cycle;Max_cycle;Signal;HPM_P1;HPM_P2
2021/04/22 00:00:37;;;;;;;42.90;28.63;;;;;;;9.82;100.00;101729.53;4932849;29;20468;-72
2021/04/22 00:03:02;;;;;;;29.63;22.27;;;;;;;9.83;100.00;101727.78;4941039;29;20197;-72
2021/04/22 00:05:32;;;;;;;24.80;19.53;;;;;;;9.69;100.00;101726.66;4932705;29;20464;-70
2021/04/22 00:07:59;;;;;;;26.20;18.60;;;;;;;9.58;100.00;101734.16;4931888;29;20169;-72
2021/04/22 00:10:32;;;;;;;24.07;16.73;;;;;;;9.65;100.00;101734.72;4935699;29;20405;-70
2021/04/22 00:12:58;;;;;;;23.60;17.00;;;;;;;9.64;100.00;101735.66;4932539;29;20424;-73
2021/04/22 00:15:23;;;;;;;19.50;15.87;;;;;;;9.56;100.00;101736.00;4931957;29;20850;-73
2021/04/22 00:17:53;;;;;;;23.23;15.57;;;;;;;9.48;100.00;101738.13;4944084;29;20227;-73
2021/04/22 00:20:19;;;;;;;22.90;16.80;;;;;;;9.55;100.00;101747.44;4939179;29;20553;-70
2021/04/22 00:22:45;;;;;;;27.87;17.20;;;;;;;9.47;100.00;101741.69;4934199;29;20476;-75
2021/04/22 00:25:12;;;;;;;28.17;18.47;;;;;;;9.38;100.00;101745.59;4935589;29;20634;-72
2021/04/22 00:27:37;;;;;;;29.90;18.63;;;;;;;9.35;100.00;101755.34;4937358;29;20476;-72
2021/04/22 00:30:07;;;;;;;27.40;18.73;;;;;;;9.36;100.00;101755.28;4936142;29;20421;-70
2021/04/22 00:32:32;;;;;;;30.00;18.23;;;;;;;9.36;100.00;101743.94;4936640;29;20186;-73
2021/04/22 00:34:58;;;;;;;31.23;19.60;;;;;;;9.34;100.00;101746.63;4935768;29;20405;-71
2021/04/22 00:37:24;;;;;;;34.20;19.73;;;;;;;9.28;100.00;101740.81;4936215;29;20687;-73
2021/04/22 00:39:49;;;;;;;34.60;20.70;;;;;;;9.27;100.00;101745.22;4936248;29;20216;-72
2021/04/22 00:42:15;;;;;;;32.90;23.07;;;;;;;9.33;100.00;101739.69;4936278;29;20239;-73
2021/04/22 00:44:41;;;;;;;33.43;22.40;;;;;;;9.33;100.00;101737.06;4938285;29;20189;-74
2021/04/22 00:47:08;;;;;;;30.60;22.20;;;;;;;9.28;100.00;101743.44;4935935;29;20176;-71
2021/04/22 00:49:34;;;;;;;29.30;21.60;;;;;;;9.27;100.00;101734.72;4936112;29;20166;-72
2021/04/22 00:52:00;;;;;;;31.33;21.23;;;;;;;9.35;100.00;101740.47;4935533;29;20961;-72
2021/04/22 00:54:26;;;;;;;28.70;20.87;;;;;;;9.39;100.00;101738.56;4939036;29;20287;-72
2021/04/22 00:56:51;;;;;;;34.13;20.53;;;;;;;9.35;100.00;101732.59;4935885;29;20429;-72
2021/04/22 00:59:17;;;;;;;29.30;21.87;;;;;;;9.35;100.00;101737.00;4935768;29;20425;-79
2021/04/22 01:01:44;;;;;;;29.87;20.47;;;;;;;9.40;100.00;101735.03;4936048;29;20251;-72
2021/04/22 01:04:09;;;;;;;26.87;19.83;;;;;;;9.36;100.00;101738.69;4935441;29;20165;-72
2021/04/22 01:06:36;;;;;;;26.07;16.03;;;;;;;9.29;100.00;101745.13;4936020;29;20402;-72
2021/04/22 01:09:04;;;;;;;22.40;17.57;;;;;;;9.12;100.00;101741.50;4936030;29;20174;-70
2021/04/22 01:11:30;;;;;;;27.37;17.33;;;;;;;9.12;100.00;101741.50;4936298;29;20432;-76
2021/04/22 01:13:56;;;;;;;24.37;18.10;;;;;;;9.06;100.00;101741.75;4935359;29;20413;-73
2021/04/22 01:16:22;;;;;;;25.60;20.37;;;;;;;9.00;100.00;101744.69;4934400;29;20428;-72
2021/04/22 01:18:47;;;;;;;26.83;18.83;;;;;;;9.01;100.00;101742.91;4934784;29;20220;-70
2021/04/22 01:21:26;;;;;;;31.30;20.10;;;;;;;8.93;100.00;101739.78;4935184;29;20464;-72
2021/04/22 01:23:52;;;;;;;26.97;19.00;;;;;;;8.90;100.00;101738.13;4935921;29;20176;-78
2021/04/22 01:26:20;;;;;;;30.97;21.20;;;;;;;8.89;100.00;101736.41;4935452;29;20445;-74
2021/04/22 01:28:46;;;;;;;32.70;20.37;;;;;;;8.83;100.00;101741.91;4935566;29;20811;-74
2021/04/22 01:31:11;;;;;;;27.57;20.27;;;;;;;8.77;100.00;101748.31;4934930;29;20425;-73
2021/04/22 01:33:38;;;;;;;30.63;19.83;;;;;;;8.70;100.00;101752.09;4934871;29;20166;-72
2021/04/22 01:36:04;;;;;;;29.90;20.87;;;;;;;8.63;100.00;101749.81;4934161;29;20247;-73
2021/04/22 01:38:30;;;;;;;33.90;22.03;;;;;;;8.57;100.00;101746.53;4934544;29;20813;-72
2021/04/22 01:40:59;;;;;;;32.97;18.93;;;;;;;8.60;100.00;101750.75;4934776;29;20455;-71
2021/04/22 01:43:26;;;;;;;32.80;22.10;;;;;;;8.55;100.00;101756.22;4935131;29;20543;-72
2021/04/22 01:45:51;;;;;;;44.10;21.23;;;;;;;8.52;100.00;101753.72;4934846;29;20421;-72
2021/04/22 01:48:17;;;;;;;26.50;19.70;;;;;;;8.47;100.00;101755.69;4934972;29;20424;-73
2021/04/22 01:50:43;;;;;;;39.60;19.83;;;;;;;8.47;100.00;101757.47;4935110;29;20180;-72
2021/04/22 01:53:09;;;;;;;31.03;22.33;;;;;;;8.43;100.00;101754.09;4935148;29;20173;-73
2021/04/22 01:55:46;;;;;;;35.60;24.77;;;;;;;8.40;100.00;101756.00;4934630;29;20524;-72
2021/04/22 01:58:19;;;;;;;38.07;23.50;;;;;;;8.33;100.00;101768.47;4934154;29;20177;-72
2021/04/22 02:00:56;;;;;;;44.90;28.90;;;;;;;8.33;100.00;101764.06;4935200;29;20465;-73
2021/04/22 02:03:22;;;;;;;33.50;23.80;;;;;;;8.31;100.00;101767.66;4934637;29;20611;-72
2021/04/22 02:05:49;;;;;;;37.50;23.20;;;;;;;8.30;100.00;101764.19;4934801;29;20452;-72
2021/04/22 02:08:15;;;;;;;35.77;26.23;;;;;;;8.20;100.00;101762.00;4934762;29;20839;-72
2021/04/22 02:10:42;;;;;;;41.23;24.77;;;;;;;8.25;100.00;101762.69;4934446;29;20440;-72
2021/04/22 02:13:10;;;;;;;29.30;17.27;;;;;;;8.31;100.00;101765.91;4934617;29;20984;-71
2021/04/22 02:15:37;;;;;;;36.33;23.50;;;;;;;8.28;100.00;101763.41;4942105;29;20440;-72
2021/04/22 02:18:03;;;;;;;41.73;26.63;;;;;;;8.26;100.00;101767.84;4934282;29;20531;-72
2021/04/22 02:20:29;;;;;;;25.20;17.40;;;;;;;8.29;100.00;101772.09;4934921;29;20449;-73
2021/04/22 02:22:55;;;;;;;31.07;21.80;;;;;;;8.25;100.00;101770.53;4933305;29;20427;-74
2021/04/22 02:25:24;;;;;;;38.10;24.90;;;;;;;8.28;100.00;101768.63;4933942;29;20463;-70
2021/04/22 02:27:50;;;;;;;33.33;21.90;;;;;;;8.38;100.00;101771.75;4934436;29;20401;-73
2021/04/22 02:30:19;;;;;;;41.30;24.70;;;;;;;8.40;100.00;101764.72;4934489;29;20972;-73
2021/04/22 02:32:46;;;;;;;40.30;20.57;;;;;;;8.52;100.00;101761.56;4934501;29;20421;-73
2021/04/22 02:35:14;;;;;;;29.13;19.60;;;;;;;8.67;100.00;101759.22;4933777;29;20425;-73
2021/04/22 02:37:40;;;;;;;29.80;20.93;;;;;;;8.76;100.00;101761.44;4933308;29;20413;-71
2021/04/22 02:40:11;;;;;;;35.23;23.40;;;;;;;8.78;100.00;101765.72;4933881;29;20456;-73
2021/04/22 02:42:36;;;;;;;39.00;26.67;;;;;;;8.81;100.00;101764.72;4934700;29;20432;-72
2021/04/22 02:45:06;;;;;;;38.77;25.33;;;;;;;8.84;100.00;101768.09;4934027;29;20443;-72
2021/04/22 02:47:32;;;;;;;43.80;28.63;;;;;;;8.78;100.00;101763.09;4933426;29;20168;-71
2021/04/22 02:49:57;;;;;;;42.17;28.50;;;;;;;8.79;100.00;101774.44;4934337;29;20398;-73
2021/04/22 02:52:23;;;;;;;50.50;33.40;;;;;;;8.73;100.00;101769.44;4934024;29;20173;-72
2021/04/22 02:54:48;;;;;;;54.30;34.30;;;;;;;8.63;100.00;101768.13;4933640;29;20221;-72
2021/04/22 02:57:14;;;;;;;49.50;35.50;;;;;;;8.58;100.00;101771.78;4933372;29;20169;-72
2021/04/22 02:59:40;;;;;;;44.57;28.70;;;;;;;8.58;100.00;101771.78;4933784;29;20267;-70
2021/04/22 03:02:05;;;;;;;48.37;34.60;;;;;;;8.54;100.00;101769.38;4934149;29;20169;-73
2021/04/22 03:04:31;;;;;;;61.40;36.60;;;;;;;8.49;100.00;101771.34;4933924;29;20408;-72
2021/04/22 03:06:56;;;;;;;59.67;39.20;;;;;;;8.44;100.00;101781.97;4933285;29;20204;-72
2021/04/22 03:09:22;;;;;;;51.43;35.87;;;;;;;8.38;100.00;101774.38;4933562;29;20173;-71
2021/04/22 03:11:47;;;;;;;53.40;36.80;;;;;;;8.31;100.00;101785.97;4933857;29;20165;-71
2021/04/22 03:14:13;;;;;;;55.50;37.03;;;;;;;8.19;100.00;101791.72;4933731;29;20609;-71
2021/04/22 03:16:38;;;;;;;49.50;33.37;;;;;;;8.17;100.00;101798.78;4933311;29;20176;-72
2021/04/22 03:19:04;;;;;;;55.43;32.50;;;;;;;8.06;100.00;101800.03;4933248;29;20420;-74
2021/04/22 03:21:30;;;;;;;44.60;31.47;;;;;;;8.05;100.00;101794.88;4932973;29;20237;-73
2021/04/22 03:23:55;;;;;;;44.33;30.20;;;;;;;7.99;100.00;101798.56;4933923;29;20409;-72
2021/04/22 03:26:21;;;;;;;40.27;29.33;;;;;;;7.92;100.00;101809.34;4933248;29;20169;-73
2021/04/22 03:28:47;;;;;;;50.30;29.10;;;;;;;7.89;100.00;101805.09;4933615;29;20182;-74
2021/04/22 03:31:13;;;;;;;46.50;31.67;;;;;;;7.82;100.00;101816.69;4933963;29;20564;-74
2021/04/22 03:33:39;;;;;;;48.77;30.50;;;;;;;7.79;100.00;101811.59;4933181;29;20413;-73
2021/04/22 03:36:05;;;;;;;50.17;33.57;;;;;;;7.81;100.00;101815.00;4933038;29;20417;-74
2021/04/22 03:38:30;;;;;;;49.50;34.77;;;;;;;7.85;100.00;101821.81;4932727;29;20181;-72
2021/04/22 03:40:56;;;;;;;59.43;39.93;;;;;;;7.88;100.00;101813.84;4933638;29;20472;-72
2021/04/22 03:43:21;;;;;;;64.87;40.20;;;;;;;7.94;100.00;101821.47;4933824;29;20240;-74
2021/04/22 03:45:47;;;;;;;64.33;44.03;;;;;;;7.93;100.00;101824.13;4933186;29;20173;-73
2021/04/22 03:48:12;;;;;;;61.57;41.80;;;;;;;8.10;100.00;101823.50;4933295;29;20540;-74
2021/04/22 03:50:38;;;;;;;62.50;43.23;;;;;;;8.22;100.00;101823.00;4933390;29;20169;-73
2021/04/22 03:53:03;;;;;;;67.83;44.93;;;;;;;8.25;100.00;101822.91;4932795;29;20204;-73
2021/04/22 03:55:30;;;;;;;61.70;43.80;;;;;;;8.34;100.00;101826.00;4933236;29;20297;-73
2021/04/22 03:57:55;;;;;;;59.20;45.00;;;;;;;8.34;100.00;101825.16;4935274;29;20192;-73
2021/04/22 04:00:23;;;;;;;53.83;41.30;;;;;;;8.37;100.00;101838.13;4936122;29;20530;-74
2021/04/22 04:02:48;;;;;;;64.80;40.10;;;;;;;8.47;100.00;101834.25;4937393;29;20161;-72
2021/04/22 04:05:14;;;;;;;68.90;44.60;;;;;;;8.50;100.00;101830.66;4936543;29;20417;-73
2021/04/22 04:07:40;;;;;;;69.60;44.50;;;;;;;8.43;100.00;101840.50;4936572;29;20176;-73
2021/04/22 04:10:07;;;;;;;61.60;40.80;;;;;;;8.54;100.00;101843.56;4937127;29;20170;-73
2021/04/22 04:12:33;;;;;;;59.13;35.77;;;;;;;8.58;100.00;101833.81;4936895;29;20172;-72
2021/04/22 04:14:59;;;;;;;50.13;36.10;;;;;;;8.65;100.00;101843.13;4937025;29;20420;-74
2021/04/22 04:17:24;;;;;;;54.60;36.00;;;;;;;8.65;100.00;101843.13;4934767;29;20292;-73
2021/04/22 04:19:50;;;;;;;55.17;38.73;;;;;;;8.74;100.00;101855.84;4936229;29;20205;-71
2021/04/22 04:22:16;;;;;;;62.93;40.83;;;;;;;9.37;100.00;101851.41;4936806;29;20569;-73
2021/04/22 04:24:41;;;;;;;66.10;38.10;;;;;;;10.78;100.00;101843.06;4936420;29;20425;-71
2021/04/22 04:27:07;;;;;;;46.13;35.37;;;;;;;10.46;100.00;101844.66;4936260;29;20149;-71
2021/04/22 04:29:32;;;;;;;45.40;33.93;;;;;;;10.77;100.00;101838.72;4936912;29;20552;-73
2021/04/22 04:31:58;;;;;;;41.27;29.00;;;;;;;11.13;100.00;101836.97;4936290;29;20169;-72
2021/04/22 04:34:24;;;;;;;42.73;27.50;;;;;;;12.01;100.00;101834.03;4936046;29;20190;-72
2021/04/22 04:36:49;;;;;;;40.53;26.60;;;;;;;11.40;100.00;101839.00;4936600;29;20180;-74
2021/04/22 04:39:15;;;;;;;48.73;28.67;;;;;;;10.42;100.00;101842.22;4936595;29;20219;-73
2021/04/22 04:41:42;;;;;;;40.70;29.80;;;;;;;10.12;100.00;101855.00;4937724;29;20287;-73
2021/04/22 04:44:08;;;;;;;48.33;32.17;;;;;;;9.87;100.00;101856.16;4936530;29;20208;-74
2021/04/22 04:46:34;;;;;;;43.77;32.60;;;;;;;9.84;100.00;101864.19;4936766;29;20492;-71
2021/04/22 04:49:00;;;;;;;49.10;37.40;;;;;;;9.85;100.00;101865.03;4936148;29;20909;-73
2021/04/22 04:51:25;;;;;;;62.30;37.97;;;;;;;9.74;100.00;101868.13;4935746;29;20188;-73
2021/04/22 04:53:51;;;;;;;58.00;38.43;;;;;;;9.80;100.00;101870.47;4935487;29;20164;-73
2021/04/22 04:56:18;;;;;;;52.60;33.30;;;;;;;9.87;100.00;101874.53;4935601;29;20235;-75
2021/04/22 04:58:45;;;;;;;40.87;29.87;;;;;;;9.92;100.00;101869.94;4935073;29;20790;-73
2021/04/22 05:01:11;;;;;;;46.90;31.60;;;;;;;9.95;100.00;101871.56;4935997;29;20840;-74
2021/04/22 05:03:37;;;;;;;41.03;27.37;;;;;;;9.97;100.00;101869.69;4935845;29;20417;-73
2021/04/22 05:06:03;;;;;;;53.70;31.70;;;;;;;9.96;100.00;101862.75;4935111;29;20420;-73
2021/04/22 05:08:29;;;;;;;47.13;29.70;;;;;;;10.01;100.00;101872.13;4935153;29;20414;-73
2021/04/22 05:10:54;;;;;;;45.93;29.40;;;;;;;10.10;100.00;101875.25;4935844;29;20413;-73
2021/04/22 05:13:20;;;;;;;43.70;30.93;;;;;;;10.20;100.00;101872.13;4935748;29;20229;-72
2021/04/22 05:15:45;;;;;;;55.37;33.30;;;;;;;10.32;100.00;101872.50;4934464;29;20268;-72
2021/04/22 05:18:11;;;;;;;48.17;30.70;;;;;;;10.40;100.00;101879.09;4935089;29;20596;-71
2021/04/22 05:20:36;;;;;;;40.20;28.70;;;;;;;10.56;100.00;101872.16;4935153;29;20201;-72
2021/04/22 05:23:02;;;;;;;44.20;29.20;;;;;;;10.66;100.00;101874.38;4935539;29;20277;-74
2021/04/22 05:25:27;;;;;;;41.40;30.40;;;;;;;10.67;100.00;101879.56;4934685;29;20543;-70
2021/04/22 05:27:53;;;;;;;40.43;27.30;;;;;;;10.67;100.00;101881.34;4934625;29;20714;-74
2021/04/22 05:30:19;;;;;;;40.27;28.50;;;;;;;10.76;100.00;101881.72;4935416;29;20181;-73
2021/04/22 05:32:44;;;;;;;35.00;27.33;;;;;;;10.91;100.00;101887.16;4935151;29;20594;-72
2021/04/22 05:35:11;;;;;;;36.07;25.23;;;;;;;11.02;100.00;101880.41;4936813;29;20183;-72
2021/04/22 05:37:36;;;;;;;34.00;22.60;;;;;;;11.08;100.00;101882.75;4934685;29;20292;-71
2021/04/22 05:40:03;;;;;;;32.57;24.53;;;;;;;11.08;100.00;101881.91;4934354;29;20532;-74
2021/04/22 05:42:29;;;;;;;32.83;23.50;;;;;;;11.12;100.00;101875.56;4934727;29;20588;-72
2021/04/22 05:44:54;;;;;;;36.67;23.10;;;;;;;11.23;100.00;101878.47;4933419;29;21029;-76
2021/04/22 05:47:20;;;;;;;34.10;25.80;;;;;;;11.38;100.00;101877.69;4934072;29;20194;-72
2021/04/22 05:49:45;;;;;;;40.33;26.80;;;;;;;11.55;100.00;101883.84;4933036;29;20173;-73
2021/04/22 05:52:11;;;;;;;43.97;29.43;;;;;;;11.64;100.00;101881.63;4933085;29;20192;-73
2021/04/22 05:54:36;;;;;;;39.07;27.87;;;;;;;11.79;100.00;101879.94;4933653;29;20244;-72
2021/04/22 05:57:02;;;;;;;36.60;28.17;;;;;;;11.94;100.00;101886.22;4934420;29;20247;-73
2021/04/22 05:59:27;;;;;;;42.90;25.67;;;;;;;12.07;100.00;101879.31;4934928;29;20255;-73
2021/04/22 06:01:53;;;;;;;42.97;26.90;;;;;;;12.13;100.00;101876.34;4934570;29;20184;-72
2021/04/22 06:04:18;;;;;;;36.10;23.00;;;;;;;12.31;100.00;101884.16;4934052;29;20185;-73
2021/04/22 06:06:44;;;;;;;36.90;24.20;;;;;;;12.44;100.00;101880.78;4934109;29;20646;-74
2021/04/22 06:09:09;;;;;;;33.33;21.80;;;;;;;12.42;100.00;101881.81;4934485;29;20169;-73
2021/04/22 06:11:35;;;;;;;33.60;25.10;;;;;;;12.52;100.00;101882.97;4934429;29;20254;-73
2021/04/22 06:14:00;;;;;;;32.27;22.20;;;;;;;12.64;100.00;101884.06;4934077;29;20173;-74
2021/04/22 06:16:26;;;;;;;33.63;20.87;;;;;;;12.66;100.00;101884.84;4934031;29;20200;-73
2021/04/22 06:18:52;;;;;;;33.57;20.63;;;;;;;12.77;100.00;101871.88;4933888;29;20505;-72
2021/04/22 06:21:18;;;;;;;30.67;21.20;;;;;;;12.78;100.00;101873.59;4933303;29;20224;-73
2021/04/22 06:23:43;;;;;;;44.23;21.57;;;;;;;12.86;100.00;101867.88;4916456;29;20503;-71
2021/04/22 06:26:09;;;;;;;32.57;22.63;;;;;;;12.98;100.00;101877.69;4933438;29;20165;-73
2021/04/22 06:28:34;;;;;;;34.73;22.13;;;;;;;13.08;100.00;101876.22;4933683;29;20639;-72
2021/04/22 06:31:00;;;;;;;24.90;18.97;;;;;;;13.18;100.00;101871.25;4933960;29;20627;-73
2021/04/22 06:33:26;;;;;;;27.43;20.03;;;;;;;13.22;100.00;101873.63;4933072;29;20173;-74
2021/04/22 06:35:51;;;;;;;29.90;21.40;;;;;;;13.44;100.00;101869.69;4933546;29;20176;-73
2021/04/22 06:38:17;;;;;;;29.60;20.80;;;;;;;13.65;100.00;101868.41;4933643;29;20585;-71
2021/04/22 06:40:42;;;;;;;30.43;21.03;;;;;;;13.78;100.00;101865.84;4934284;29;20254;-73
2021/04/22 06:43:12;;;;;;;26.27;18.23;;;;;;;13.97;100.00;101869.03;4933493;29;20184;-71
2021/04/22 06:45:38;;;;;;;31.10;17.70;;;;;;;14.16;100.00;101863.44;4933570;29;20169;-74
2021/04/22 06:48:05;;;;;;;23.30;16.50;;;;;;;14.25;100.00;101862.00;4933825;29;20413;-76
2021/04/22 06:50:31;;;;;;;26.57;15.33;;;;;;;14.36;100.00;101860.38;4933450;29;20861;-72
2021/04/22 06:52:56;;;;;;;23.93;15.73;;;;;;;14.53;100.00;101859.31;4933199;29;20968;-70
2021/04/22 06:55:23;;;;;;;15.00;12.20;;;;;;;14.69;100.00;101861.78;4933050;29;20224;-74
2021/04/22 06:57:49;;;;;;;14.87;10.53;;;;;;;14.76;100.00;101859.59;4933255;29;20547;-74
2021/04/22 07:00:22;;;;;;;18.23;9.67;;;;;;;14.78;100.00;101868.28;4933446;29;20468;-73
2021/04/22 07:02:49;;;;;;;10.63;8.23;;;;;;;14.88;100.00;101864.91;4934991;29;20429;-72
2021/04/22 07:05:15;;;;;;;10.60;7.93;;;;;;;15.06;100.00;101872.59;4933287;29;20405;-71
2021/04/22 07:07:41;;;;;;;10.50;6.47;;;;;;;15.11;100.00;101873.94;4933021;29;20436;-71
2021/04/22 07:10:08;;;;;;;11.63;7.70;;;;;;;15.15;100.00;101872.78;4933319;29;20936;-73
2021/04/22 07:12:34;;;;;;;9.53;5.80;;;;;;;15.24;100.00;101876.63;4933416;29;20945;-73
2021/04/22 07:15:00;;;;;;;12.07;6.47;;;;;;;15.23;100.00;101872.28;4932155;29;20481;-71
2021/04/22 07:17:26;;;;;;;14.40;7.20;;;;;;;15.27;100.00;101869.31;4933348;29;20440;-73
2021/04/22 07:19:57;;;;;;;10.10;6.50;;;;;;;15.46;100.00;101873.34;4917030;29;20197;-72
2021/04/22 07:22:24;;;;;;;7.50;5.40;;;;;;;15.68;100.00;101870.94;4932829;29;20420;-71
2021/04/22 07:24:50;;;;;;;11.40;6.70;;;;;;;15.87;100.00;101878.44;4932521;29;20188;-72
2021/04/22 07:27:16;;;;;;;9.73;7.13;;;;;;;15.95;100.00;101878.75;4931707;29;20510;-73
2021/04/22 07:29:47;;;;;;;14.70;11.60;;;;;;;16.01;100.00;101885.41;4932705;29;20447;-76
2021/04/22 07:32:13;;;;;;;10.30;7.13;;;;;;;16.18;100.00;101877.09;4933864;29;20183;-73
2021/04/22 07:34:38;;;;;;;11.33;6.50;;;;;;;16.20;100.00;101879.63;4936986;29;20548;-71
2021/04/22 07:37:04;;;;;;;7.23;5.17;;;;;;;16.12;100.00;101880.19;4941484;29;20634;-72
2021/04/22 07:39:30;;;;;;;11.43;6.97;;;;;;;16.18;100.00;101879.75;4942325;29;20594;-72
2021/04/22 07:41:55;;;;;;;12.30;6.73;;;;;;;16.35;100.00;101882.03;4937721;29;20436;-73
2021/04/22 07:44:21;;;;;;;9.90;6.37;;;;;;;16.48;100.00;101883.78;4936935;29;20185;-72
2021/04/22 07:46:47;;;;;;;16.63;5.50;;;;;;;16.56;100.00;101884.06;4937459;29;20154;-74
2021/04/22 07:49:12;;;;;;;10.80;6.57;;;;;;;16.60;100.00;101889.03;4936475;29;20220;-74
2021/04/22 07:51:38;;;;;;;9.00;7.17;;;;;;;16.65;100.00;101897.50;4939177;29;20211;-79
2021/04/22 07:54:04;;;;;;;32.47;8.03;;;;;;;16.65;100.00;101891.34;4942575;29;20170;-72
2021/04/22 07:56:30;;;;;;;9.63;6.50;;;;;;;16.65;100.00;101894.00;4942400;29;20197;-72
2021/04/22 07:58:55;;;;;;;10.03;7.10;;;;;;;16.67;100.00;101892.06;4942553;29;20223;-70
2021/04/22 08:01:21;;;;;;;14.37;6.10;;;;;;;16.67;100.00;101900.03;4936653;29;20200;-71
2021/04/22 08:03:47;;;;;;;7.13;5.60;;;;;;;16.61;100.00;101898.69;4936139;29;20178;-70
2021/04/22 08:06:13;;;;;;;8.80;6.57;;;;;;;16.64;100.00;101900.28;4940524;29;20416;-70
2021/04/22 08:08:39;;;;;;;9.83;5.77;;;;;;;16.54;100.00;101896.59;4936550;29;20173;-73
2021/04/22 08:11:10;;;;;;;9.53;5.93;;;;;;;16.72;100.00;101895.28;4936287;29;20397;-79
2021/04/22 08:13:37;;;;;;;6.77;4.47;;;;;;;16.78;100.00;101894.84;4937952;29;20184;-72
2021/04/22 08:16:03;;;;;;;7.50;5.10;;;;;;;16.84;100.00;101889.03;4935918;29;20436;-72
2021/04/22 08:18:29;;;;;;;14.83;6.40;;;;;;;16.95;100.00;101882.09;4935332;29;20818;-70
2021/04/22 08:20:57;;;;;;;8.17;5.53;;;;;;;16.98;100.00;101889.81;4936324;29;20201;-74
2021/04/22 08:23:28;;;;;;;7.90;5.77;;;;;;;16.88;100.00;101884.38;4936190;29;20781;-72
2021/04/22 08:25:56;;;;;;;6.60;5.03;;;;;;;16.85;100.00;101888.09;4934979;29;20985;-76
2021/04/22 08:28:24;;;;;;;8.43;4.60;;;;;;;16.96;100.00;101881.97;4936347;29;20421;-73
2021/04/22 08:31:00;;;;;;;7.93;5.17;;;;;;;17.00;100.00;101886.06;4936057;29;20925;-73
2021/04/22 08:33:27;;;;;;;9.80;5.57;;;;;;;17.15;100.00;101886.72;4936229;29;20413;-80
2021/04/22 08:35:52;;;;;;;7.90;5.70;;;;;;;17.09;100.00;101885.41;4936166;29;20441;-73
2021/04/22 08:38:18;;;;;;;9.83;6.53;;;;;;;17.16;100.00;101888.44;4935263;29;20552;-70
2021/04/22 08:40:45;;;;;;;11.17;5.57;;;;;;;17.30;100.00;101885.56;4935383;29;20251;-70
2021/04/22 08:43:11;;;;;;;6.50;4.80;;;;;;;17.35;100.00;101888.72;4935037;29;20181;-71
2021/04/22 08:45:37;;;;;;;6.13;4.67;;;;;;;17.36;100.00;101882.44;4935841;29;20417;-72
2021/04/22 08:48:04;;;;;;;11.53;4.77;;;;;;;17.19;100.00;101888.19;4935741;29;20398;-72
2021/04/22 08:50:32;;;;;;;8.37;5.80;;;;;;;17.30;100.00;101890.88;4935723;29;20849;-71
2021/04/22 08:53:05;;;;;;;6.23;5.10;;;;;;;17.38;100.00;101883.19;4934752;29;20909;-71
2021/04/22 08:55:34;;;;;;;7.03;4.80;;;;;;;17.54;100.00;101884.66;4934996;29;20457;-71
2021/04/22 08:58:04;;;;;;;12.60;5.00;;;;;;;17.61;100.00;101888.53;4934681;29;20450;-71
2021/04/22 09:00:33;;;;;;;8.47;6.20;;;;;;;17.55;100.00;101891.66;4934064;29;21676;-69
2021/04/22 09:02:58;;;;;;;10.03;5.13;;;;;;;17.54;100.00;101890.81;4943658;29;20476;-73
2021/04/22 09:05:24;;;;;;;6.80;5.77;;;;;;;17.50;100.00;101899.13;4933769;29;20879;-70
2021/04/22 09:07:50;;;;;;;8.03;5.00;;;;;;;17.28;100.00;101892.81;4940593;29;20212;-79
2021/04/22 09:10:23;;;;;;;8.90;6.47;;;;;;;17.02;100.00;101899.25;4934814;29;20220;-75
2021/04/22 09:13:10;;;;;;;10.47;5.73;;;;;;;16.97;100.00;101899.59;4935005;29;20185;-70
2021/04/22 09:15:40;;;;;;;9.93;5.60;;;;;;;17.13;100.00;101896.63;4934830;29;20437;-71
2021/04/22 09:18:11;;;;;;;8.30;6.13;;;;;;;17.25;100.00;101882.44;4935905;29;20427;-71
2021/04/22 09:20:52;;;;;;;5.87;4.90;;;;;;;17.33;100.00;101882.69;4936023;29;20522;-70
2021/04/22 09:23:27;;;;;;;9.80;6.30;;;;;;;17.34;100.00;101886.19;4942608;29;20423;-77
2021/04/22 09:25:59;;;;;;;8.10;5.90;;;;;;;17.32;100.00;101885.47;4934905;29;20433;-70
2021/04/22 09:28:41;;;;;;;8.90;5.70;;;;;;;16.70;100.00;101902.53;4933442;29;20420;-70
2021/04/22 09:31:09;;;;;;;8.60;5.97;;;;;;;16.60;100.00;101897.00;4923335;29;20712;-71
2021/04/22 09:33:36;;;;;;;7.83;5.13;;;;;;;16.88;100.00;101889.69;4932450;29;20445;-72
2021/04/22 09:36:20;;;;;;;10.00;6.03;;;;;;;17.13;100.00;101889.50;4934291;29;20897;-74
2021/04/22 09:38:55;;;;;;;6.80;5.77;;;;;;;17.25;100.00;101887.75;4934286;29;20810;-70
2021/04/22 09:41:24;;;;;;;10.73;5.70;;;;;;;17.44;100.00;101885.34;4932860;29;21007;-70
2021/04/22 09:44:10;;;;;;;8.40;6.70;;;;;;;17.53;100.00;101875.81;4953225;29;20462;-68
2021/04/22 09:46:42;;;;;;;7.53;6.47;;;;;;;17.57;100.00;101871.97;4952299;29;20416;-78
2021/04/22 09:49:10;;;;;;;6.20;5.30;;;;;;;17.77;100.00;101872.25;4946789;29;20444;-77
2021/04/22 09:51:38;;;;;;;7.40;4.70;;;;;;;18.01;100.00;101860.50;4944989;29;20503;-72
2021/04/22 09:54:22;;;;;;;7.60;5.13;;;;;;;18.08;100.00;101866.19;4933695;29;20839;-74
2021/04/22 09:56:53;;;;;;;12.63;5.63;;;;;;;18.19;100.00;101866.13;4934027;29;20409;-74
2021/04/22 09:59:20;;;;;;;7.03;4.93;;;;;;;18.52;100.00;101875.88;4934126;29;20419;-74
2021/04/22 10:01:57;;;;;;;6.20;4.83;;;;;;;18.90;100.00;101866.56;4933304;29;20972;-74
2021/04/22 10:04:34;;;;;;;6.90;5.30;;;;;;;19.14;100.00;101868.97;4933288;29;20499;-74
2021/04/22 10:07:00;;;;;;;5.60;4.80;;;;;;;19.34;100.00;101865.41;4934107;29;20471;-74
2021/04/22 10:09:38;;;;;;;7.77;5.30;;;;;;;19.67;100.00;101864.38;4933996;29;20849;-72
2021/04/22 10:12:08;;;;;;;13.80;8.77;;;;;;;19.40;100.00;101861.38;4932979;29;20890;-72
2021/04/22 10:14:36;;;;;;;8.80;5.73;;;;;;;19.36;100.00;101867.97;4915072;29;20895;-73
2021/04/22 10:17:16;;;;;;;11.80;5.90;;;;;;;19.50;100.00;101861.44;4926236;29;20409;-74
2021/04/22 10:19:41;;;;;;;8.80;5.80;;;;;;;19.84;98.92;101851.38;4932685;29;20500;-71
2021/04/22 10:22:07;;;;;;;8.10;5.60;;;;;;;20.73;91.91;101854.91;4933612;29;20480;-71
2021/04/22 10:24:33;;;;;;;9.00;7.27;;;;;;;21.42;82.08;101849.34;4932850;29;20181;-70
2021/04/22 10:27:04;;;;;;;8.87;5.10;;;;;;;21.25;79.58;101848.22;4938308;29;20237;-73
2021/04/22 10:29:30;;;;;;;9.47;6.10;;;;;;;21.61;79.32;101845.72;4933616;29;20929;-75
2021/04/22 10:31:58;;;;;;;7.00;5.63;;;;;;;21.59;75.84;101851.22;4933603;29;20409;-75
2021/04/22 10:34:29;;;;;;;5.70;4.40;;;;;;;22.11;74.08;101848.88;4933696;29;20790;-74
2021/04/22 10:36:57;;;;;;;6.60;5.20;;;;;;;22.37;72.68;101834.78;4933267;29;20441;-74
2021/04/22 10:39:23;;;;;;;7.73;4.90;;;;;;;21.92;72.81;101840.13;4916679;29;20426;-75
2021/04/22 10:41:51;;;;;;;11.37;5.07;;;;;;;22.19;73.30;101837.44;4933631;29;20548;-77
2021/04/22 10:44:19;;;;;;;6.43;5.40;;;;;;;23.11;71.90;101826.34;4933790;29;20275;-74
2021/04/22 10:46:45;;;;;;;7.80;5.77;;;;;;;23.39;75.22;101827.03;4932945;29;20409;-73
2021/04/22 10:49:11;;;;;;;6.00;5.20;;;;;;;24.25;66.58;101837.59;4932913;29;20420;-75
2021/04/22 10:51:37;;;;;;;8.60;4.77;;;;;;;24.66;66.42;101834.16;4933196;29;20413;-75
2021/04/22 10:54:04;;;;;;;7.53;6.00;;;;;;;24.02;67.64;101832.00;4931858;29;20812;-78
2021/04/22 10:56:30;;;;;;;8.90;6.00;;;;;;;23.43;69.63;101833.78;4933120;29;20243;-73
2021/04/22 10:58:56;;;;;;;16.90;5.60;;;;;;;23.70;64.01;101818.47;4935423;29;20413;-75
2021/04/22 11:01:41;;;;;;;6.13;5.00;;;;;;;25.13;60.92;101815.50;4933081;29;20464;-74
2021/04/22 11:04:10;;;;;;;7.37;5.17;;;;;;;26.53;58.16;101817.38;4918930;29;20594;-74
2021/04/22 11:06:41;;;;;;;12.70;6.10;;;;;;;27.20;55.97;101820.13;4932984;29;20397;-74
2021/04/22 11:09:20;;;;;;;8.60;6.17;;;;;;;27.79;53.22;101809.31;4933326;29;20400;-74